Time;durP1;ratioP1;P1;durP2;ratioP2;P2;SDS_P1;SDS_P2;PMS_P1;PMS_P2;Temp;Humidity;BMP_temperature;BMP_pressure;BME280_temperature;BME280_humidity;BME280_pressure;Samples;Min_cycle;Max_cycle;Signal;HPM_P1;HPM_P2
2022/09/11 00:01:52;;;;;;;31.15;22.15;;;15.30;99.90;;;;;;5042685;28;20029;-76
2022/09/11 00:04:18;;;;;;;30.80;23.30;;;15.60;99.90;;;;;;5029994;28;20474;-76
2022/09/11 00:06:44;;;;;;;32.10;23.30;;;15.30;99.90;;;;;;5039998;28;20045;-76
2022/09/11 00:09:09;;;;;;;33.03;23.42;;;15.30;99.90;;;;;;5036045;28;20040;-76
2022/09/11 00:11:40;;;;;;;35.75;24.15;;;15.30;99.90;;;;;;5039514;28;20541;-76
2022/09/11 00:14:09;;;;;;;31.05;22.70;;;15.30;99.90;;;;;;5044630;28;20485;-76
2022/09/11 00:16:37;;;;;;;33.63;23.27;;;15.30;99.90;;;;;;5041555;28;20045;-76
2022/09/11 00:19:09;;;;;;;35.88;22.40;;;15.50;99.90;;;;;;5029684;28;20099;-76
2022/09/11 00:21:38;;;;;;;30.02;23.00;;;15.30;99.90;;;;;;5031531;28;20048;-76
2022/09/11 00:24:04;;;;;;;32.80;22.80;;;15.40;99.90;;;;;;5039104;28;20041;-76
2022/09/11 00:26:30;;;;;;;32.05;23.77;;;15.20;99.90;;;;;;5032633;28;20073;-76
2022/09/11 00:28:56;;;;;;;31.00;23.33;;;15.20;99.90;;;;;;5016415;28;20086;-77
2022/09/11 00:31:26;;;;;;;32.10;23.50;;;15.30;99.90;;;;;;5044541;28;20379;-77
2022/09/11 00:33:53;;;;;;;32.55;23.77;;;15.50;99.90;;;;;;5029905;28;20041;-76
2022/09/11 00:36:30;;;;;;;31.00;21.95;;;15.20;99.90;;;;;;5031271;28;20434;-76
2022/09/11 00:38:56;;;;;;;31.80;22.77;;;15.20;99.90;;;;;;5035671;28;20025;-75
2022/09/11 00:41:38;;;;;;;34.20;22.83;;;15.50;99.90;;;;;;5033738;28;20117;-76
2022/09/11 00:44:17;;;;;;;30.38;22.05;;;15.40;99.90;;;;;;5013096;28;20486;-76
2022/09/11 00:46:48;;;;;;;30.23;21.83;;;15.10;99.90;;;;;;5032769;28;20439;-76
2022/09/11 00:49:22;;;;;;;29.15;21.48;;;15.60;99.90;;;;;;5028837;28;20171;-76
2022/09/11 00:51:54;;;;;;;30.38;21.70;;;15.10;99.90;;;;;;5030951;28;20523;-76
2022/09/11 00:54:26;;;;;;;29.40;21.55;;;15.10;99.90;;;;;;5040332;28;20072;-76
2022/09/11 00:56:55;;;;;;;29.27;21.42;;;14.40;99.90;;;;;;5046653;28;20063;-76
2022/09/11 00:59:28;;;;;;;27.83;20.80;;;15.30;99.90;;;;;;5041094;28;20088;-76
2022/09/11 01:01:56;;;;;;;25.90;19.48;;;15.00;99.90;;;;;;5015008;28;20073;-75
2022/09/11 01:04:22;;;;;;;25.73;19.00;;;14.90;99.90;;;;;;5020139;28;20038;-76
2022/09/11 01:07:01;;;;;;;24.02;17.83;;;14.90;99.90;;;;;;5044765;28;20041;-76
2022/09/11 01:09:30;;;;;;;27.25;19.85;;;14.90;99.90;;;;;;5042829;28;20103;-76
2022/09/11 01:12:35;;;;;;;30.85;22.48;;;15.00;99.90;;;;;;5046088;28;20041;-76
2022/09/11 01:15:17;;;;;;;30.80;23.02;;;14.70;99.90;;;;;;5030278;28;20051;-76
2022/09/11 01:18:04;;;;;;;29.42;20.95;;;14.80;99.90;;;;;;5043098;28;20045;-75
2022/09/11 01:20:42;;;;;;;32.13;21.83;;;14.80;99.90;;;;;;5029392;28;20080;-76
2022/09/11 01:23:39;;;;;;;31.45;22.67;;;14.80;99.90;;;;;;5027003;28;20556;-76
2022/09/11 01:26:14;;;;;;;31.35;21.95;;;14.70;99.90;;;;;;5035445;28;20048;-76
2022/09/11 01:29:00;;;;;;;30.20;20.08;;;14.70;99.90;;;;;;5035793;28;20037;-76
2022/09/11 01:31:32;;;;;;;26.35;19.52;;;14.70;99.90;;;;;;5042372;28;20053;-77
2022/09/11 01:34:04;;;;;;;25.63;19.15;;;14.70;99.90;;;;;;5035816;28;20120;-77
2022/09/11 01:36:43;;;;;;;25.00;18.52;;;14.70;99.90;;;;;;5030661;28;20056;-76
2022/09/11 01:39:12;;;;;;;22.50;16.98;;;14.60;99.90;;;;;;5039181;28;20041;-77
2022/09/11 01:41:52;;;;;;;24.27;17.35;;;14.60;99.90;;;;;;5013537;28;20448;-77
2022/09/11 01:44:25;;;;;;;26.88;18.90;;;15.00;99.90;;;;;;5029709;28;20112;-77
2022/09/11 01:46:55;;;;;;;25.73;19.00;;;14.70;99.90;;;;;;5023409;28;20498;-76
2022/09/11 01:49:43;;;;;;;28.02;19.70;;;14.50;99.90;;;;;;5036330;28;20040;-76
2022/09/11 01:52:14;;;;;;;27.20;20.60;;;14.50;99.90;;;;;;5032311;28;20037;-76
2022/09/11 01:55:01;;;;;;;31.05;21.77;;;14.50;99.90;;;;;;5037930;28;20037;-77
2022/09/11 01:57:30;;;;;;;30.85;22.13;;;14.50;99.90;;;;;;5041320;28;20120;-76
2022/09/11 02:00:00;;;;;;;30.77;21.58;;;14.60;99.90;;;;;;5031832;28;20037;-76
2022/09/11 02:02:39;;;;;;;30.55;21.55;;;15.00;99.90;;;;;;5040731;28;20044;-75
2022/09/11 02:05:32;;;;;;;27.45;20.67;;;14.50;99.90;;;;;;5022630;28;20042;-76
2022/09/11 02:08:03;;;;;;;29.00;21.13;;;14.50;99.90;;;;;;5039356;28;20115;-76
2022/09/11 02:10:38;;;;;;;30.08;21.20;;;14.50;99.90;;;;;;5038231;28;20029;-76
2022/09/11 02:13:16;;;;;;;20.60;15.65;;;14.50;99.90;;;;;;5014710;28;20441;-76
2022/09/11 02:15:51;;;;;;;16.48;12.60;;;14.40;99.90;;;;;;5033708;28;20041;-77
2022/09/11 02:18:23;;;;;;;15.00;10.32;;;14.40;99.90;;;;;;5041154;28;20436;-76
2022/09/11 02:20:50;;;;;;;13.40;10.10;;;14.40;99.90;;;;;;5030860;28;20042;-76
2022/09/11 02:23:19;;;;;;;14.25;10.23;;;14.30;99.90;;;;;;5013581;28;20069;-77
2022/09/11 02:25:46;;;;;;;13.23;10.75;;;14.40;99.90;;;;;;5035854;28;20470;-77
2022/09/11 02:28:12;;;;;;;12.82;10.35;;;14.20;99.90;;;;;;5029490;28;20041;-76
2022/09/11 02:30:42;;;;;;;13.07;10.23;;;14.20;99.90;;;;;;5013146;28;20033;-76
2022/09/11 02:33:32;;;;;;;14.27;10.80;;;14.20;99.90;;;;;;5021796;28;20041;-77
2022/09/11 02:36:26;;;;;;;17.00;12.45;;;14.10;99.90;;;;;;5030991;28;20558;-76
2022/09/11 02:39:28;;;;;;;19.15;14.23;;;14.10;99.90;;;;;;5036927;28;20514;-76
2022/09/11 02:42:16;;;;;;;20.80;15.18;;;14.10;99.90;;;;;;5032629;28;20127;-76
2022/09/11 02:45:13;;;;;;;20.13;15.45;;;14.10;99.90;;;;;;5016293;28;20053;-76
2022/09/11 02:48:17;;;;;;;19.05;15.07;;;14.10;99.90;;;;;;5044196;28;20030;-76
2022/09/11 02:51:03;;;;;;;18.35;13.98;;;14.00;99.90;;;;;;5019130;28;20038;-75
2022/09/11 02:53:48;;;;;;;18.60;13.65;;;14.40;99.90;;;;;;5031525;28;20072;-76
2022/09/11 02:56:29;;;;;;;17.30;13.20;;;14.00;99.90;;;;;;5035811;28;20116;-76
2022/09/11 02:59:10;;;;;;;17.10;13.13;;;14.20;99.90;;;;;;5016827;28;20518;-76
2022/09/11 03:01:51;;;;;;;17.67;13.45;;;13.90;99.90;;;;;;5030578;28;20045;-76
2022/09/11 03:04:19;;;;;;;14.95;12.18;;;13.90;99.90;;;;;;5027375;28;20033;-76
2022/09/11 03:06:47;;;;;;;14.57;10.98;;;13.70;99.90;;;;;;5043329;28;20045;-76
2022/09/11 03:09:13;;;;;;;16.00;11.68;;;14.30;99.90;;;;;;5034388;28;20043;-76
2022/09/11 03:11:39;;;;;;;16.80;12.32;;;14.10;99.90;;;;;;5042921;28;20124;-76
2022/09/11 03:14:05;;;;;;;14.95;11.23;;;13.70;99.90;;;;;;5018005;28;20410;-76
2022/09/11 03:16:30;;;;;;;15.30;12.00;;;13.70;99.90;;;;;;5043710;28;20038;-75
2022/09/11 03:19:01;;;;;;;14.25;11.63;;;13.70;99.90;;;;;;5010912;28;20041;-76
2022/09/11 03:21:26;;;;;;;13.48;11.32;;;13.70;99.90;;;;;;5035374;28;20037;-75
2022/09/11 03:23:52;;;;;;;12.50;10.45;;;13.70;99.90;;;;;;5051880;28;20096;-76
2022/09/11 03:26:19;;;;;;;13.50;10.95;;;14.10;99.90;;;;;;5016278;28;20052;-76
2022/09/11 03:28:45;;;;;;;12.98;10.65;;;13.70;99.90;;;;;;5021878;28;20038;-76
2022/09/11 03:31:11;;;;;;;12.82;11.05;;;13.60;99.90;;;;;;5024149;28;20056;-76
2022/09/11 03:33:37;;;;;;;15.68;11.80;;;13.80;99.90;;;;;;5040697;28;20422;-76
2022/09/11 03:36:02;;;;;;;15.45;12.60;;;13.70;99.90;;;;;;5043241;28;20482;-76
2022/09/11 03:38:28;;;;;;;17.83;12.73;;;13.60;99.90;;;;;;5041349;28;20144;-76
2022/09/11 03:40:54;;;;;;;16.58;13.40;;;13.60;99.90;;;;;;5019220;28;20064;-76
2022/09/11 03:43:21;;;;;;;14.25;12.13;;;13.50;99.90;;;;;;5028567;28;20377;-77
2022/09/11 03:45:53;;;;;;;15.25;13.15;;;13.50;99.90;;;;;;5042218;28;20033;-75
2022/09/11 03:48:21;;;;;;;14.75;12.20;;;13.50;99.90;;;;;;5030643;28;20037;-76
2022/09/11 03:50:49;;;;;;;13.77;11.40;;;13.50;99.90;;;;;;5024197;28;20044;-76
2022/09/11 03:53:16;;;;;;;14.50;12.18;;;13.50;99.90;;;;;;5031140;28;20049;-75
2022/09/11 03:55:43;;;;;;;13.60;11.45;;;13.40;99.90;;;;;;5044128;28;20418;-76
2022/09/11 03:58:10;;;;;;;13.40;11.38;;;13.40;99.90;;;;;;5022782;28;20064;-76
2022/09/11 04:00:41;;;;;;;15.35;12.00;;;13.30;99.90;;;;;;5020708;28;20037;-75
2022/09/11 04:03:07;;;;;;;15.77;12.27;;;13.40;99.90;;;;;;5030588;28;20567;-75
2022/09/11 04:05:33;;;;;;;13.82;11.57;;;13.30;99.90;;;;;;5041121;28;20033;-76
2022/09/11 04:07:58;;;;;;;14.38;11.55;;;13.40;99.90;;;;;;5032746;28;20079;-76
2022/09/11 04:10:24;;;;;;;13.57;11.50;;;13.40;99.90;;;;;;5038792;28;20053;-76
2022/09/11 04:12:50;;;;;;;12.48;10.73;;;13.30;99.90;;;;;;5044627;28;20126;-76
2022/09/11 04:15:24;;;;;;;11.65;10.38;;;13.30;99.90;;;;;;5045407;28;20475;-76
2022/09/11 04:17:51;;;;;;;9.60;8.60;;;13.20;99.90;;;;;;5038701;28;20045;-76
2022/09/11 04:20:17;;;;;;;10.52;9.43;;;13.50;99.90;;;;;;5010775;28;20037;-76
2022/09/11 04:22:42;;;;;;;9.40;8.40;;;13.30;99.90;;;;;;5030989;28;20494;-75
2022/09/11 04:25:13;;;;;;;9.88;8.88;;;13.30;99.90;;;;;;5036088;28;20032;-76
2022/09/11 04:27:38;;;;;;;9.90;8.60;;;13.30;99.90;;;;;;5043056;28;20041;-76
2022/09/11 04:30:05;;;;;;;10.38;8.50;;;13.30;99.90;;;;;;5035526;28;20059;-76
2022/09/11 04:32:33;;;;;;;9.82;8.75;;;13.30;99.90;;;;;;5026771;28;20029;-76
2022/09/11 04:35:00;;;;;;;10.05;8.90;;;13.30;99.90;;;;;;5029305;28;20050;-76
2022/09/11 04:37:27;;;;;;;10.05;8.90;;;13.60;99.90;;;;;;5026983;28;20037;-76
2022/09/11 04:39:54;;;;;;;10.05;8.80;;;13.30;99.90;;;;;;5015125;28;22536;-76
2022/09/11 04:42:20;;;;;;;10.90;9.00;;;13.30;99.90;;;;;;5019470;28;20040;-76
2022/09/11 04:44:47;;;;;;;9.63;8.50;;;13.30;99.90;;;;;;5030058;28;20033;-76
2022/09/11 04:47:15;;;;;;;9.75;8.75;;;13.30;99.90;;;;;;5027575;28;20039;-76
2022/09/11 04:49:41;;;;;;;9.70;8.70;;;13.30;99.90;;;;;;5032682;28;20033;-76
2022/09/11 04:52:07;;;;;;;9.68;8.68;;;13.40;99.90;;;;;;5022560;28;20041;-75
2022/09/11 04:54:35;;;;;;;9.98;8.75;;;13.50;99.90;;;;;;5043520;28;20521;-76
2022/09/11 04:57:03;;;;;;;10.25;8.75;;;13.20;99.90;;;;;;5041679;28;20457;-76
2022/09/11 04:59:33;;;;;;;9.73;8.50;;;13.20;99.90;;;;;;5046479;28;20033;-76
2022/09/11 05:02:00;;;;;;;9.10;7.93;;;13.20;99.90;;;;;;5031841;28;20729;-76
2022/09/11 05:04:25;;;;;;;9.57;7.80;;;13.20;99.90;;;;;;5036073;28;20560;-75
2022/09/11 05:06:55;;;;;;;9.20;7.53;;;13.10;99.90;;;;;;5043225;28;20037;-76
2022/09/11 05:09:21;;;;;;;8.00;6.97;;;13.10;99.90;;;;;;5037710;28;20047;-76
2022/09/11 05:11:47;;;;;;;8.93;7.45;;;13.40;99.90;;;;;;5010985;28;20470;-76
2022/09/11 05:14:13;;;;;;;9.25;7.70;;;13.50;99.90;;;;;;5014573;28;20033;-76
2022/09/11 05:16:38;;;;;;;8.23;7.35;;;13.00;99.90;;;;;;5031388;28;20041;-76
2022/09/11 05:19:05;;;;;;;8.88;7.95;;;13.00;99.90;;;;;;5037214;28;20037;-76
2022/09/11 05:21:33;;;;;;;8.88;7.80;;;13.20;99.90;;;;;;5034548;28;20033;-76
2022/09/11 05:24:03;;;;;;;9.00;7.85;;;12.90;99.90;;;;;;5034911;28;20033;-76
2022/09/11 05:26:31;;;;;;;9.27;7.90;;;12.90;99.90;;;;;;5018899;28;20049;-76
2022/09/11 05:29:06;;;;;;;9.27;7.65;;;13.20;99.90;;;;;;5033653;28;20482;-76
2022/09/11 05:31:37;;;;;;;8.80;7.68;;;13.00;99.90;;;;;;5035866;28;20399;-77
2022/09/11 05:34:03;;;;;;;9.68;8.68;;;12.90;99.90;;;;;;5040639;28;20046;-76
2022/09/11 05:36:35;;;;;;;9.65;8.65;;;12.90;99.90;;;;;;5015847;28;20033;-75
2022/09/11 05:39:02;;;;;;;10.25;9.00;;;13.70;99.90;;;;;;5035611;28;20036;-76
2022/09/11 05:41:28;;;;;;;10.52;8.85;;;12.90;99.90;;;;;;5028829;28;20040;-76
2022/09/11 05:43:54;;;;;;;11.73;8.98;;;13.40;99.90;;;;;;5032776;28;20410;-76
2022/09/11 05:46:22;;;;;;;10.77;9.63;;;13.00;99.90;;;;;;5029297;28;20053;-75
2022/09/11 05:48:48;;;;;;;11.10;9.38;;;13.00;99.90;;;;;;5034180;28;20411;-75
2022/09/11 05:51:20;;;;;;;11.57;9.15;;;12.90;99.90;;;;;;5033552;28;20037;-76
2022/09/11 05:53:56;;;;;;;9.88;8.88;;;13.00;99.90;;;;;;5017728;28;20029;-76
2022/09/11 05:56:24;;;;;;;10.10;9.02;;;13.00;99.90;;;;;;5033069;28;20447;-76
2022/09/11 05:58:52;;;;;;;10.32;8.85;;;13.00;99.90;;;;;;5020295;28;20037;-76
2022/09/11 06:01:20;;;;;;;10.13;8.63;;;13.00;99.90;;;;;;5037076;28;20025;-76
2022/09/11 06:03:48;;;;;;;10.05;8.48;;;13.00;99.90;;;;;;5032146;28;20483;-75
2022/09/11 06:06:14;;;;;;;9.65;8.57;;;13.00;99.90;;;;;;5032139;28;20045;-76
2022/09/11 06:08:43;;;;;;;9.32;8.43;;;13.00;99.90;;;;;;5035093;28;20037;-76
2022/09/11 06:11:15;;;;;;;8.82;7.93;;;13.00;99.90;;;;;;5012766;28;20041;-76
2022/09/11 06:13:43;;;;;;;9.45;8.45;;;13.00;99.90;;;;;;5036190;28;20038;-76
2022/09/11 06:16:13;;;;;;;10.23;8.15;;;13.00;99.90;;;;;;5041540;28;20037;-75
2022/09/11 06:18:38;;;;;;;9.15;8.25;;;13.10;99.90;;;;;;5040185;28;20129;-76
2022/09/11 06:21:11;;;;;;;9.55;8.63;;;13.10;99.90;;;;;;5029950;28;20128;-76
2022/09/11 06:23:41;;;;;;;9.63;8.55;;;13.60;99.90;;;;;;5030832;28;20037;-76
2022/09/11 06:26:09;;;;;;;9.10;8.20;;;13.90;99.90;;;;;;5038415;28;20464;-75
2022/09/11 06:28:35;;;;;;;9.07;8.18;;;13.20;99.90;;;;;;5043157;28;20033;-75
2022/09/11 06:31:10;;;;;;;9.50;8.50;;;13.30;99.90;;;;;;5047409;28;20040;-75
2022/09/11 06:33:37;;;;;;;10.25;8.95;;;13.30;99.90;;;;;;5014583;28;20060;-75
2022/09/11 06:36:14;;;;;;;9.95;8.90;;;13.50;99.90;;;;;;5039792;28;20127;-76
2022/09/11 06:38:40;;;;;;;10.82;9.50;;;13.80;99.90;;;;;;5041477;28;20036;-75
2022/09/11 06:41:11;;;;;;;10.00;9.00;;;13.40;99.90;;;;;;5026167;28;20483;-76
2022/09/11 06:43:37;;;;;;;10.10;8.45;;;13.40;99.90;;;;;;5038196;28;20064;-75
2022/09/11 06:46:05;;;;;;;10.55;8.93;;;13.50;99.90;;;;;;5046378;28;20415;-75
2022/09/11 06:48:30;;;;;;;10.05;8.95;;;13.50;99.90;;;;;;5019667;28;20037;-75
2022/09/11 06:51:03;;;;;;;10.38;9.27;;;14.00;99.90;;;;;;5042747;28;20490;-75
2022/09/11 06:53:29;;;;;;;10.55;9.43;;;13.60;99.90;;;;;;5047896;28;20036;-75
2022/09/11 06:55:59;;;;;;;10.20;9.10;;;13.60;99.90;;;;;;5034949;28;20106;-75
2022/09/11 06:58:26;;;;;;;9.80;8.70;;;13.60;99.90;;;;;;5035464;28;20027;-75
2022/09/11 07:00:51;;;;;;;11.10;9.82;;;13.80;99.90;;;;;;5043341;28;20049;-75
2022/09/11 07:03:21;;;;;;;10.65;9.55;;;14.00;99.90;;;;;;5040060;28;20045;-75
2022/09/11 07:05:50;;;;;;;10.73;9.63;;;13.70;99.90;;;;;;5029976;28;20044;-75
2022/09/11 07:08:19;;;;;;;11.25;9.57;;;14.00;99.90;;;;;;5031795;28;20041;-75
2022/09/11 07:10:45;;;;;;;13.25;10.00;;;13.80;99.90;;;;;;5047397;28;20033;-75
2022/09/11 07:13:10;;;;;;;11.60;10.27;;;13.80;99.90;;;;;;5048630;28;20045;-76
2022/09/11 07:15:38;;;;;;;14.10;10.65;;;13.80;99.90;;;;;;5026010;28;20037;-75
2022/09/11 07:18:04;;;;;;;12.52;10.57;;;13.90;99.90;;;;;;5049296;28;20037;-75
2022/09/11 07:20:31;;;;;;;12.82;10.85;;;14.00;99.90;;;;;;5047601;28;20036;-75
2022/09/11 07:22:59;;;;;;;14.43;11.32;;;14.00;99.90;;;;;;5040599;28;20041;-76
2022/09/11 07:25:25;;;;;;;17.63;12.85;;;14.10;99.90;;;;;;5049574;28;20048;-75
2022/09/11 07:27:51;;;;;;;16.30;13.35;;;14.20;99.90;;;;;;5050055;28;20106;-76
2022/09/11 07:30:18;;;;;;;16.23;13.70;;;14.30;99.90;;;;;;5042245;28;20434;-77
2022/09/11 07:32:44;;;;;;;18.67;13.93;;;14.40;99.90;;;;;;5049678;28;20574;-76
2022/09/11 07:35:10;;;;;;;18.67;14.32;;;14.50;99.90;;;;;;5049736;28;20430;-76
2022/09/11 07:37:36;;;;;;;20.90;15.00;;;14.50;99.90;;;;;;5045595;28;20453;-75
2022/09/11 07:40:03;;;;;;;18.67;15.68;;;14.80;99.90;;;;;;5036917;28;20037;-76
2022/09/11 07:42:29;;;;;;;20.20;15.50;;;14.80;99.90;;;;;;5049623;28;20090;-75
2022/09/11 07:44:55;;;;;;;21.13;16.23;;;14.80;99.90;;;;;;5041270;28;20497;-75
2022/09/11 07:47:21;;;;;;;18.88;15.98;;;14.80;99.90;;;;;;5046464;28;20045;-75
2022/09/11 07:49:46;;;;;;;22.60;16.23;;;15.00;99.90;;;;;;5041716;28;20483;-75
2022/09/11 07:52:13;;;;;;;22.17;15.68;;;15.10;99.90;;;;;;5044669;28;20048;-75
2022/09/11 07:54:41;;;;;;;20.63;15.57;;;15.40;99.90;;;;;;5043642;28;20116;-75
2022/09/11 07:57:07;;;;;;;20.33;15.38;;;15.30;99.90;;;;;;5020929;28;20042;-74
2022/09/11 07:59:33;;;;;;;19.00;14.95;;;15.60;99.90;;;;;;5017124;28;20650;-73
2022/09/11 08:01:58;;;;;;;20.63;14.30;;;15.40;99.90;;;;;;5035590;28;20029;-75
2022/09/11 08:04:24;;;;;;;17.20;13.98;;;15.50;99.90;;;;;;5035151;28;20091;-77
2022/09/11 08:06:50;;;;;;;18.92;13.88;;;15.70;99.90;;;;;;5021298;28;20533;-78
2022/09/11 08:09:16;;;;;;;22.10;12.48;;;15.60;99.90;;;;;;5025675;28;20030;-77
2022/09/11 08:11:47;;;;;;;16.67;11.70;;;15.70;99.90;;;;;;5006157;28;20557;-76
2022/09/11 08:14:16;;;;;;;20.15;12.18;;;15.80;99.90;;;;;;5013496;28;20034;-77
2022/09/11 08:16:49;;;;;;;12.88;10.95;;;15.80;99.90;;;;;;5017089;28;20411;-77
2022/09/11 08:19:18;;;;;;;16.48;11.52;;;15.90;99.90;;;;;;5030430;28;20029;-77
2022/09/11 08:21:46;;;;;;;16.27;11.13;;;15.90;99.90;;;;;;5013139;28;20073;-77
2022/09/11 08:24:13;;;;;;;13.93;11.23;;;16.30;99.90;;;;;;5012244;28;20439;-77
2022/09/11 08:26:39;;;;;;;14.90;11.02;;;16.10;99.90;;;;;;5014414;28;20041;-77
2022/09/11 08:29:05;;;;;;;17.85;11.25;;;16.20;99.90;;;;;;5020982;28;20052;-77
2022/09/11 08:31:54;;;;;;;13.55;10.30;;;16.30;99.90;;;;;;5020808;28;20025;-77
2022/09/11 08:34:38;;;;;;;14.68;10.57;;;16.40;99.90;;;;;;5030842;28;20040;-77
2022/09/11 08:37:04;;;;;;;15.43;10.73;;;16.60;99.90;;;;;;5042006;28;20411;-77
2022/09/11 08:39:38;;;;;;;17.50;10.82;;;16.50;99.90;;;;;;5036892;28;20415;-77
2022/09/11 08:42:12;;;;;;;15.25;10.35;;;16.60;99.90;;;;;;5002532;28;20037;-76
2022/09/11 08:44:47;;;;;;;12.63;9.20;;;17.10;99.90;;;;;;5034574;28;20051;-77
2022/09/11 08:47:19;;;;;;;12.25;9.20;;;16.60;99.90;;;;;;5031945;28;20041;-77
2022/09/11 08:50:10;;;;;;;11.35;8.52;;;16.90;99.90;;;;;;5033465;28;20045;-77
2022/09/11 08:52:36;;;;;;;13.55;8.80;;;16.80;99.90;;;;;;5030411;28;20045;-77
2022/09/11 08:55:03;;;;;;;11.45;8.13;;;17.10;99.90;;;;;;5029602;28;20048;-77
2022/09/11 08:57:53;;;;;;;10.65;8.57;;;17.10;99.90;;;;;;5030187;28;20046;-77
2022/09/11 09:00:26;;;;;;;8.73;6.22;;;17.30;99.90;;;;;;5032671;28;20047;-77
2022/09/11 09:03:33;;;;;;;10.88;7.72;;;17.40;99.90;;;;;;5039450;28;20047;-77
2022/09/11 09:06:03;;;;;;;13.68;8.65;;;17.60;99.90;;;;;;5033552;28;20116;-77
2022/09/11 09:08:30;;;;;;;10.48;8.10;;;17.70;99.90;;;;;;5029295;28;20041;-78
2022/09/11 09:11:19;;;;;;;10.57;7.53;;;17.90;99.90;;;;;;5028158;28;20033;-78
2022/09/11 09:13:50;;;;;;;9.65;6.72;;;18.10;99.90;;;;;;5013980;28;20560;-78
2022/09/11 09:16:40;;;;;;;8.38;5.90;;;18.40;99.90;;;;;;5031658;28;20113;-78
2022/09/11 09:19:17;;;;;;;9.48;5.32;;;18.60;99.90;;;;;;5022142;28;20422;-78
2022/09/11 09:21:58;;;;;;;8.85;4.72;;;19.00;99.90;;;;;;5036543;28;20033;-75
2022/09/11 09:24:38;;;;;;;8.52;4.40;;;19.40;99.90;;;;;;5024255;28;20051;-76
2022/09/11 09:27:20;;;;;;;5.75;3.88;;;19.70;99.90;;;;;;5045464;28;20046;-75
2022/09/11 09:29:51;;;;;;;5.63;3.63;;;19.70;99.90;;;;;;5033824;28;20077;-76
2022/09/11 09:32:45;;;;;;;5.27;3.53;;;19.50;99.90;;;;;;5013363;28;20047;-76
2022/09/11 09:35:32;;;;;;;7.38;3.72;;;19.40;99.90;;;;;;5027065;28;20468;-75
2022/09/11 09:37:59;;;;;;;5.55;3.55;;;19.20;99.90;;;;;;5026675;28;20061;-75
2022/09/11 09:40:28;;;;;;;7.43;4.03;;;19.10;99.90;;;;;;5028678;28;20042;-77
2022/09/11 09:43:32;;;;;;;6.10;4.25;;;19.00;99.90;;;;;;5032983;28;20072;-76
2022/09/11 09:46:04;;;;;;;7.07;4.70;;;18.90;99.90;;;;;;5030054;28;20052;-76
2022/09/11 09:48:38;;;;;;;5.85;4.20;;;19.00;99.90;;;;;;5032673;28;20123;-76
2022/09/11 09:51:38;;;;;;;6.13;3.92;;;19.20;99.90;;;;;;5003675;28;20034;-76
2022/09/11 09:54:17;;;;;;;6.35;3.33;;;19.50;99.90;;;;;;5011992;28;20089;-76
2022/09/11 09:56:54;;;;;;;4.95;3.30;;;19.80;99.90;;;;;;5011565;28;20042;-76
2022/09/11 09:59:34;;;;;;;4.53;2.85;;;20.00;99.90;;;;;;5030127;28;20069;-76
2022/09/11 10:02:00;;;;;;;7.45;3.10;;;20.10;99.90;;;;;;5033084;28;20049;-76
2022/09/11 10:04:29;;;;;;;5.00;3.30;;;20.30;99.90;;;;;;5034723;28;20045;-76
2022/09/11 10:07:17;;;;;;;5.53;3.25;;;20.60;99.90;;;;;;5034655;28;20556;-76
2022/09/11 10:09:57;;;;;;;4.15;2.50;;;20.80;99.90;;;;;;5020172;28;20041;-76
2022/09/11 10:12:30;;;;;;;5.60;2.70;;;21.00;99.90;;;;;;5035519;28;20052;-76
2022/09/11 10:15:01;;;;;;;4.15;2.50;;;21.10;99.90;;;;;;5018046;28;20090;-76
2022/09/11 10:17:35;;;;;;;6.72;2.17;;;21.30;99.90;;;;;;5030592;28;20042;-76
2022/09/11 10:20:21;;;;;;;4.68;2.20;;;21.50;99.90;;;;;;5036480;28;20479;-77
2022/09/11 10:22:48;;;;;;;5.35;2.38;;;21.80;99.90;;;;;;5033156;28;20573;-77
2022/09/11 10:25:26;;;;;;;2.88;1.98;;;21.60;99.90;;;;;;5032881;28;20407;-77
2022/09/11 10:28:02;;;;;;;4.07;1.98;;;21.40;99.90;;;;;;5020001;28;20120;-76
2022/09/11 10:30:31;;;;;;;6.10;2.38;;;21.10;99.90;;;;;;5019935;28;20056;-74
2022/09/11 10:33:02;;;;;;;3.95;2.20;;;20.90;99.90;;;;;;5019779;28;20036;-76
2022/09/11 10:35:33;;;;;;;3.55;2.20;;;20.70;99.90;;;;;;5043270;28;20040;-76
2022/09/11 10:38:19;;;;;;;5.47;2.40;;;20.50;99.90;;;;;;5012310;28;20039;-76
2022/09/11 10:40:59;;;;;;;3.60;2.38;;;20.40;99.90;;;;;;5020310;28;20026;-75
2022/09/11 10:43:47;;;;;;;5.88;2.72;;;20.20;99.90;;;;;;5037916;28;20081;-75
2022/09/11 10:46:28;;;;;;;4.85;2.30;;;20.00;99.90;;;;;;5014956;28;20046;-75
2022/09/11 10:49:07;;;;;;;4.72;2.53;;;19.90;99.90;;;;;;5050720;28;20128;-74
2022/09/11 10:51:36;;;;;;;4.18;2.60;;;19.80;99.90;;;;;;5026531;28;20128;-75
2022/09/11 10:54:15;;;;;;;4.55;2.50;;;19.80;99.90;;;;;;5037425;28;20041;-75
2022/09/11 10:57:05;;;;;;;5.57;2.95;;;19.80;99.90;;;;;;5028997;28;20451;-74
2022/09/11 10:59:40;;;;;;;4.57;1.88;;;19.80;99.90;;;;;;5032194;28;20049;-74
2022/09/11 11:02:18;;;;;;;4.28;2.15;;;19.70;99.90;;;;;;5043408;28;20059;-75
2022/09/11 11:04:44;;;;;;;4.65;2.15;;;19.70;99.90;;;;;;5038504;28;20097;-75
2022/09/11 11:07:27;;;;;;;3.10;2.00;;;19.80;99.90;;;;;;5027902;28;20383;-75
2022/09/11 11:10:27;;;;;;;2.78;1.98;;;20.00;99.90;;;;;;5043644;28;20061;-75
2022/09/11 11:13:19;;;;;;;5.65;2.10;;;20.20;99.90;;;;;;5027725;28;20045;-75
2022/09/11 11:16:15;;;;;;;5.40;2.20;;;20.60;99.90;;;;;;5014495;28;20046;-74
2022/09/11 11:19:10;;;;;;;3.50;1.98;;;21.00;99.90;;;;;;5013633;28;20112;-73
2022/09/11 11:21:54;;;;;;;3.58;2.10;;;21.30;99.90;;;;;;4997160;28;20077;-76
2022/09/11 11:24:54;;;;;;;3.70;2.40;;;21.30;99.90;;;;;;5018949;28;20034;-75
2022/09/11 11:27:28;;;;;;;3.83;2.00;;;21.50;99.90;;;;;;5023590;28;20107;-75
2022/09/11 11:30:16;;;;;;;3.75;1.80;;;21.60;99.90;;;;;;5021274;28;20095;-76
2022/09/11 11:33:07;;;;;;;2.95;2.10;;;21.80;99.90;;;;;;5036675;28;20045;-76
2022/09/11 11:35:56;;;;;;;2.57;1.67;;;22.00;99.90;;;;;;5021418;28;20037;-76
2022/09/11 11:38:40;;;;;;;2.88;1.90;;;22.00;99.90;;;;;;5035092;28;20108;-76
2022/09/11 11:41:14;;;;;;;3.90;1.80;;;22.20;99.90;;;;;;5025858;28;20084;-76
2022/09/11 11:43:44;;;;;;;1.92;1.67;;;22.40;99.90;;;;;;5041203;28;20045;-76
2022/09/11 11:46:45;;;;;;;4.40;1.80;;;22.50;99.90;;;;;;5039758;28;20041;-76
2022/09/11 11:49:22;;;;;;;3.42;1.88;;;22.70;99.50;;;;;;5031702;28;20037;-76
2022/09/11 11:51:51;;;;;;;5.72;1.98;;;22.90;99.90;;;;;;5028852;28;20415;-74
2022/09/11 11:54:29;;;;;;;3.60;1.77;;;23.00;99.90;;;;;;5028120;28;20063;-75
2022/09/11 11:57:18;;;;;;;5.35;1.98;;;23.20;99.60;;;;;;5033647;28;20037;-76
2022/09/11 11:59:51;;;;;;;4.95;1.80;;;23.40;99.90;;;;;;5014338;28;20045;-76
2022/09/11 12:02:38;;;;;;;3.50;1.80;;;23.50;99.90;;;;;;5015235;28;20109;-76
2022/09/11 12:05:09;;;;;;;3.97;1.90;;;23.60;99.10;;;;;;5032200;28;20045;-76
2022/09/11 12:07:37;;;;;;;3.67;2.25;;;23.50;99.40;;;;;;5031028;28;20045;-76
2022/09/11 12:10:05;;;;;;;3.67;1.80;;;23.50;99.20;;;;;;5037179;28;20094;-76
2022/09/11 12:12:34;;;;;;;2.10;1.58;;;23.50;99.40;;;;;;5033536;28;20038;-76
2022/09/11 12:15:08;;;;;;;3.45;1.80;;;23.50;99.50;;;;;;5025656;28;20048;-74
2022/09/11 12:17:39;;;;;;;4.32;1.52;;;23.60;99.10;;;;;;5029906;28;20057;-76
2022/09/11 12:20:11;;;;;;;3.55;1.73;;;23.50;98.80;;;;;;5012539;28;20082;-75
2022/09/11 12:22:47;;;;;;;3.05;1.90;;;23.40;98.00;;;;;;5030171;28;20419;-76
2022/09/11 12:25:19;;;;;;;3.72;1.80;;;23.30;98.30;;;;;;5032763;28;20496;-76
2022/09/11 12:27:45;;;;;;;2.33;1.70;;;23.20;98.40;;;;;;5015404;28;20041;-76
2022/09/11 12:30:17;;;;;;;3.65;1.88;;;23.20;98.90;;;;;;5012077;28;20033;-76
2022/09/11 12:32:49;;;;;;;6.07;1.80;;;23.30;98.70;;;;;;5027359;28;20430;-76
2022/09/11 12:35:42;;;;;;;3.20;1.90;;;23.60;99.00;;;;;;5027662;28;20037;-76
2022/09/11 12:38:31;;;;;;;3.88;2.10;;;23.60;97.50;;;;;;5024652;28;20128;-76
2022/09/11 12:41:24;;;;;;;3.38;2.03;;;23.70;97.80;;;;;;5017643;28;20405;-76
2022/09/11 12:43:50;;;;;;;4.68;1.90;;;23.80;97.70;;;;;;5020039;28;20045;-76
2022/09/11 12:46:26;;;;;;;3.80;2.00;;;23.90;98.10;;;;;;5013957;28;20182;-76
2022/09/11 12:48:59;;;;;;;3.13;1.63;;;24.00;97.30;;;;;;5031545;28;20040;-76
2022/09/11 12:51:35;;;;;;;3.05;2.00;;;23.90;97.10;;;;;;5037331;28;20045;-76
2022/09/11 12:54:27;;;;;;;4.05;1.90;;;23.80;97.00;;;;;;5033444;28;20053;-76
2022/09/11 12:57:20;;;;;;;5.07;1.83;;;23.60;96.30;;;;;;5015030;28;20495;-76
2022/09/11 12:59:58;;;;;;;5.07;1.90;;;23.50;96.50;;;;;;5028381;28;20029;-76
2022/09/11 13:02:35;;;;;;;3.22;1.80;;;23.30;96.40;;;;;;5036201;28;20040;-76
2022/09/11 13:05:02;;;;;;;4.38;2.00;;;23.10;96.90;;;;;;5026930;28;20151;-76
2022/09/11 13:07:46;;;;;;;5.43;1.88;;;22.90;96.80;;;;;;5036857;28;20078;-76